createdAt,value
2019-03-23T00:01:03.577Z,67.48
2019-03-23T00:03:33.924Z,66.73
2019-03-23T00:06:04.326Z,64.58
2019-03-23T00:08:34.780Z,65.32
2019-03-23T00:11:05.194Z,65.31
2019-03-23T00:13:35.667Z,65.05
2019-03-23T00:16:06.038Z,65.44
2019-03-23T00:18:36.429Z,65.70
2019-03-23T00:21:06.857Z,64.72
2019-03-23T00:23:37.302Z,64.50
2019-03-23T00:26:07.604Z,64.87
2019-03-23T00:28:38.083Z,64.45
2019-03-23T00:31:08.498Z,64.25
2019-03-23T00:33:38.935Z,64.89
2019-03-23T00:36:09.355Z,64.84
2019-03-23T00:38:40.056Z,64.91
2019-03-23T00:41:10.457Z,64.82
2019-03-23T00:43:40.837Z,65.13
2019-03-23T00:46:11.124Z,64.50
2019-03-23T00:48:41.487Z,63.47
2019-03-23T00:51:11.878Z,61.43
2019-03-23T00:53:42.222Z,62.60
2019-03-23T00:56:12.516Z,62.72
2019-03-23T00:58:42.848Z,62.06
2019-03-23T01:01:13.141Z,62.37
2019-03-23T01:03:43.484Z,61.67
2019-03-23T01:06:13.802Z,60.00
2019-03-23T01:08:44.148Z,60.92
2019-03-23T01:11:14.460Z,60.89
2019-03-23T01:13:44.850Z,61.81
2019-03-23T01:16:15.351Z,60.26
2019-03-23T01:18:45.831Z,60.75
2019-03-23T01:21:16.263Z,60.84
2019-03-23T01:23:46.705Z,61.90
2019-03-23T01:26:17.132Z,61.47
2019-03-23T01:28:47.584Z,60.10
2019-03-23T01:31:18.016Z,60.92
2019-03-23T01:33:48.453Z,61.12
2019-03-23T01:36:18.835Z,60.51
2019-03-23T01:38:50.313Z,61.81
2019-03-23T01:41:20.726Z,61.28
2019-03-23T01:43:51.201Z,61.63
2019-03-23T01:46:21.536Z,60.33
2019-03-23T01:48:51.999Z,61.24
2019-03-23T01:51:22.420Z,61.59
2019-03-23T01:53:52.878Z,60.81
2019-03-23T01:56:23.281Z,60.27
2019-03-23T01:58:53.750Z,60.47
2019-03-23T02:01:24.170Z,61.09
2019-03-23T02:03:54.613Z,61.23
2019-03-23T02:06:25.417Z,61.22
2019-03-23T02:08:55.768Z,61.03
2019-03-23T02:11:26.054Z,61.81
2019-03-23T02:13:56.341Z,61.91
2019-03-23T02:16:26.636Z,61.65
2019-03-23T02:18:56.935Z,62.25
2019-03-23T02:21:27.237Z,61.45
2019-03-23T02:23:57.561Z,61.35
2019-03-23T02:26:27.791Z,62.48
2019-03-23T02:28:58.099Z,63.10
2019-03-23T02:31:28.396Z,61.96
2019-03-23T02:33:58.744Z,61.96
2019-03-23T02:36:29.140Z,61.97
2019-03-23T02:39:00.455Z,62.81
2019-03-23T02:41:30.768Z,62.84
2019-03-23T02:44:01.235Z,61.94
2019-03-23T02:46:31.661Z,61.45
2019-03-23T02:49:02.091Z,61.23
2019-03-23T02:51:32.499Z,62.02
2019-03-23T02:54:02.846Z,60.45
2019-03-23T02:56:33.470Z,62.16
2019-03-23T02:59:03.816Z,60.24
2019-03-23T03:01:34.127Z,61.93
2019-03-23T03:04:04.490Z,61.39
2019-03-23T03:06:34.795Z,60.90
2019-03-23T03:09:07.169Z,61.22
2019-03-23T03:11:37.609Z,61.53
2019-03-23T03:14:08.053Z,60.42
2019-03-23T03:16:38.464Z,60.82
2019-03-23T03:19:08.933Z,60.29
2019-03-23T03:21:39.339Z,60.92
2019-03-23T03:24:09.806Z,61.56
2019-03-23T03:26:40.236Z,61.06
2019-03-23T03:29:10.677Z,62.90
2019-03-23T03:31:41.093Z,61.82
2019-03-23T03:34:11.560Z,62.29
2019-03-23T03:36:41.949Z,62.00
2019-03-23T03:39:14.142Z,63.08
2019-03-23T03:41:44.541Z,61.31
2019-03-23T03:44:14.961Z,61.01
2019-03-23T03:46:48.536Z,61.83
2019-03-23T03:49:23.607Z,62.56
2019-03-23T03:51:53.963Z,62.30
2019-03-23T03:54:24.303Z,63.44
2019-03-23T03:56:55.185Z,62.13
2019-03-23T03:59:25.614Z,63.08
2019-03-23T04:01:55.890Z,63.21
2019-03-23T04:04:26.255Z,63.03
2019-03-23T04:06:56.531Z,63.78
2019-03-23T04:09:26.890Z,63.90
2019-03-23T04:11:57.196Z,64.22
2019-03-23T04:14:27.544Z,64.09
2019-03-23T04:16:57.834Z,64.87
2019-03-23T04:19:28.132Z,65.14
2019-03-23T04:21:58.444Z,64.79
2019-03-23T04:24:28.805Z,64.15
2019-03-23T04:26:59.194Z,64.23
2019-03-23T04:29:30.119Z,63.98
2019-03-23T04:32:00.447Z,64.71
2019-03-23T04:34:31.775Z,64.26
2019-03-23T04:37:02.073Z,64.14
2019-03-23T04:39:33.390Z,64.57
2019-03-23T04:42:03.780Z,65.16
2019-03-23T04:44:34.214Z,64.87
2019-03-23T04:47:04.498Z,64.56
2019-03-23T04:49:34.852Z,64.99
2019-03-23T04:52:05.182Z,65.03
2019-03-23T04:54:35.539Z,64.47
2019-03-23T04:57:05.876Z,64.45
2019-03-23T04:59:36.324Z,65.34
2019-03-23T05:02:06.650Z,65.10
2019-03-23T05:04:37.168Z,65.65
2019-03-23T05:07:07.531Z,63.33
2019-03-23T05:09:38.147Z,64.42
2019-03-23T05:12:08.506Z,63.02
2019-03-23T05:14:38.854Z,64.86
2019-03-23T05:17:09.168Z,64.71
2019-03-23T05:19:39.541Z,64.34
2019-03-23T05:22:09.882Z,63.02
2019-03-23T05:24:40.221Z,63.79
2019-03-23T05:27:10.530Z,64.15
2019-03-23T05:29:40.872Z,62.42
2019-03-23T05:32:11.169Z,62.71
2019-03-23T05:34:41.499Z,63.39
2019-03-23T05:37:11.802Z,63.38
2019-03-23T05:39:43.243Z,62.49
2019-03-23T05:42:13.563Z,64.18
2019-03-23T05:44:43.920Z,64.36
2019-03-23T05:47:14.263Z,64.28
2019-03-23T05:49:44.620Z,64.69
2019-03-23T05:52:14.920Z,64.58
2019-03-23T05:54:45.200Z,62.85
2019-03-23T05:57:15.474Z,63.54
2019-03-23T05:59:45.831Z,62.46
2019-03-23T06:02:16.168Z,62.00
2019-03-23T06:04:46.475Z,61.44
2019-03-23T06:07:16.780Z,61.95
2019-03-23T06:09:47.117Z,62.34
2019-03-23T06:12:17.783Z,63.40
2019-03-23T06:14:48.231Z,61.17
2019-03-23T06:17:18.450Z,61.31
2019-03-23T06:19:48.805Z,60.65
2019-03-23T06:22:19.108Z,59.50
2019-03-23T06:24:49.455Z,59.77
2019-03-23T06:27:19.768Z,58.73
2019-03-23T06:29:50.133Z,60.66
2019-03-23T06:32:20.822Z,59.66
2019-03-23T06:34:51.378Z,58.86
2019-03-23T06:37:21.673Z,58.32
2019-03-23T06:39:52.985Z,58.04
2019-03-23T06:42:23.301Z,58.46
2019-03-23T06:44:53.634Z,60.33
2019-03-23T06:47:23.923Z,58.53
2019-03-23T06:49:54.189Z,58.79
2019-03-23T06:52:24.520Z,57.94
2019-03-23T06:54:54.865Z,58.25
2019-03-23T06:57:31.353Z,58.87
2019-03-23T07:00:01.785Z,58.51
2019-03-23T07:02:32.061Z,58.68
2019-03-23T07:05:02.398Z,57.81
2019-03-23T07:07:32.698Z,58.82
2019-03-23T07:10:03.455Z,59.00
2019-03-23T07:12:33.763Z,58.23
2019-03-23T07:15:06.999Z,58.62
2019-03-23T07:17:37.364Z,58.00
2019-03-23T07:20:10.157Z,59.40
2019-03-23T07:22:40.489Z,57.52
2019-03-23T07:25:11.944Z,58.67
2019-03-23T07:27:42.253Z,57.69
2019-03-23T07:30:15.097Z,56.07
2019-03-23T07:32:45.417Z,56.00
2019-03-23T07:35:16.159Z,57.57
2019-03-23T07:37:46.458Z,58.13
2019-03-23T07:40:17.876Z,57.22
2019-03-23T07:42:48.164Z,54.21
2019-03-23T07:45:18.520Z,55.59
2019-03-23T07:47:48.855Z,54.68
2019-03-23T07:50:19.205Z,55.85
2019-03-23T07:52:49.526Z,53.37
2019-03-23T07:55:19.882Z,54.20
2019-03-23T07:57:50.226Z,52.89
2019-03-23T08:00:21.569Z,54.37
2019-03-23T08:02:51.874Z,54.88
2019-03-23T08:05:22.221Z,55.49
2019-03-23T08:07:52.525Z,56.49
2019-03-23T08:10:34.055Z,57.78
2019-03-23T08:13:04.432Z,59.25
2019-03-23T08:15:34.749Z,60.71
2019-03-23T08:18:05.059Z,61.89
2019-03-23T08:20:35.401Z,61.79
2019-03-23T08:23:05.811Z,62.90
2019-03-23T08:25:36.177Z,58.95
2019-03-23T08:28:06.483Z,58.59
2019-03-23T08:30:36.801Z,59.83
2019-03-23T08:33:07.103Z,61.74
2019-03-23T08:35:37.448Z,63.83
2019-03-23T08:38:07.769Z,64.96
2019-03-23T08:40:39.163Z,63.04
2019-03-23T08:43:09.428Z,63.27
2019-03-23T08:45:39.782Z,61.22
2019-03-23T08:48:10.074Z,65.13
2019-03-23T08:50:40.334Z,70.33
2019-03-23T08:53:10.640Z,72.96
2019-03-23T08:55:40.962Z,72.72
2019-03-23T08:58:11.179Z,73.81
2019-03-23T09:00:41.526Z,73.81
2019-03-23T09:03:11.852Z,75.54
2019-03-23T09:05:42.212Z,71.99
2019-03-23T09:08:12.535Z,73.42
2019-03-23T09:10:42.896Z,72.43
2019-03-23T09:13:13.308Z,71.31
2019-03-23T09:15:43.666Z,71.51
2019-03-23T09:18:14.344Z,70.35
2019-03-23T09:20:44.705Z,70.24
2019-03-23T09:23:15.028Z,71.05
2019-03-23T09:25:45.801Z,70.40
2019-03-23T09:28:16.240Z,70.81
2019-03-23T09:30:46.669Z,68.24
2019-03-23T09:33:16.969Z,66.52
2019-03-23T09:35:47.395Z,68.98
2019-03-23T09:38:17.687Z,66.82
2019-03-23T09:40:48.981Z,66.45
2019-03-23T09:43:19.277Z,65.47
2019-03-23T09:45:49.622Z,63.32
2019-03-23T09:48:19.917Z,66.20
2019-03-23T09:50:50.263Z,68.48
2019-03-23T09:53:20.572Z,65.52
2019-03-23T09:55:50.932Z,63.26
2019-03-23T09:58:21.230Z,64.46
2019-03-23T10:00:51.587Z,66.49
2019-03-23T10:03:21.860Z,69.55
2019-03-23T10:05:52.225Z,68.40
2019-03-23T10:08:22.505Z,70.71
2019-03-23T10:10:52.853Z,69.42
2019-03-23T10:13:23.149Z,68.07
2019-03-23T10:15:53.517Z,67.23
2019-03-23T10:18:23.842Z,68.82
2019-03-23T10:20:54.157Z,66.84
2019-03-23T10:23:24.472Z,66.61
2019-03-23T10:25:54.824Z,66.43
2019-03-23T10:28:25.091Z,65.95
2019-03-23T10:30:55.318Z,65.09
2019-03-23T10:33:25.608Z,63.61
2019-03-23T10:35:55.950Z,65.88
2019-03-23T10:38:26.242Z,66.07
2019-03-23T10:40:57.525Z,65.93
2019-03-23T10:43:27.838Z,64.33
2019-03-23T10:45:58.196Z,62.92
2019-03-23T10:48:28.533Z,63.99
2019-03-23T10:50:58.902Z,64.01
2019-03-23T10:53:29.235Z,64.54
2019-03-23T10:55:59.574Z,66.19
2019-03-23T10:58:29.862Z,65.77
2019-03-23T11:01:00.228Z,67.33
2019-03-23T11:03:30.506Z,67.23
2019-03-23T11:06:00.870Z,68.70
2019-03-23T11:08:31.209Z,67.60
2019-03-23T11:11:01.540Z,69.11
2019-03-23T11:13:31.850Z,67.52
2019-03-23T11:16:02.210Z,67.59
2019-03-23T11:18:32.542Z,68.16
2019-03-23T11:21:02.902Z,67.41
2019-03-23T11:23:33.320Z,68.04
2019-03-23T11:26:03.700Z,65.08
2019-03-23T11:28:34.006Z,63.58
2019-03-23T11:31:04.404Z,65.08
2019-03-23T11:33:34.719Z,62.87
2019-03-23T11:36:05.059Z,61.75
2019-03-23T11:38:35.384Z,61.98
2019-03-23T11:41:06.700Z,62.04
2019-03-23T11:43:37.087Z,64.13
2019-03-23T11:46:07.487Z,62.71
2019-03-23T11:48:37.807Z,63.70
2019-03-23T11:51:08.161Z,62.43
2019-03-23T11:53:38.459Z,64.07
2019-03-23T11:56:08.828Z,60.21
2019-03-23T11:58:39.147Z,61.53
2019-03-23T12:01:09.535Z,61.96
2019-03-23T12:03:39.862Z,59.76
2019-03-23T12:06:10.236Z,60.35
2019-03-23T12:08:40.530Z,59.54
2019-03-23T12:11:10.882Z,61.57
2019-03-23T12:13:41.168Z,60.39
2019-03-23T12:16:12.463Z,59.94
2019-03-23T12:18:42.732Z,60.46
2019-03-23T12:21:13.145Z,60.70
2019-03-23T12:23:43.485Z,59.67
2019-03-23T12:26:13.882Z,59.76
2019-03-23T12:28:44.215Z,60.27
2019-03-23T12:31:14.568Z,60.02
2019-03-23T12:33:44.810Z,61.11
2019-03-23T12:36:15.127Z,61.59
2019-03-23T12:38:45.421Z,60.76
2019-03-23T12:41:23.093Z,60.22
2019-03-23T12:43:49.092Z,59.02
2019-03-23T12:46:19.431Z,58.65
2019-03-23T12:48:49.743Z,58.08
2019-03-23T12:51:20.122Z,57.56
2019-03-23T12:53:50.452Z,57.98
2019-03-23T12:56:20.810Z,59.11
2019-03-23T12:58:51.099Z,59.31
2019-03-23T13:01:21.581Z,58.54
2019-03-23T13:03:51.831Z,59.42
2019-03-23T13:06:22.189Z,58.86
2019-03-23T13:08:52.531Z,58.82
2019-03-23T13:11:24.601Z,58.04
2019-03-23T13:13:54.886Z,57.97
2019-03-23T13:16:25.179Z,58.44
2019-03-23T13:18:55.540Z,57.28
2019-03-23T13:21:25.927Z,58.30
2019-03-23T13:23:56.220Z,59.31
2019-03-23T13:26:26.568Z,59.67
2019-03-23T13:28:56.880Z,58.22
2019-03-23T13:31:27.249Z,59.44
2019-03-23T13:33:57.661Z,59.59
2019-03-23T13:36:27.988Z,59.66
2019-03-23T13:38:58.293Z,59.80
2019-03-23T13:41:29.673Z,59.58
2019-03-23T13:43:59.979Z,58.64
2019-03-23T13:46:30.416Z,59.18
2019-03-23T13:49:00.784Z,57.83
2019-03-23T13:51:31.110Z,59.64
2019-03-23T13:54:01.524Z,59.97
2019-03-23T13:56:31.899Z,59.10
2019-03-23T13:59:02.202Z,59.65
2019-03-23T14:01:32.531Z,59.75
2019-03-23T14:04:02.845Z,59.93
2019-03-23T14:06:33.215Z,59.59
2019-03-23T14:09:04.711Z,60.78
2019-03-23T14:11:35.090Z,61.15
2019-03-23T14:14:05.404Z,62.06
2019-03-23T14:16:35.748Z,61.32
2019-03-23T14:19:06.052Z,62.44
2019-03-23T14:21:36.401Z,62.20
2019-03-23T14:24:06.699Z,62.00
2019-03-23T14:26:37.057Z,63.21
2019-03-23T14:29:07.337Z,62.29
2019-03-23T14:31:37.714Z,62.52
2019-03-23T14:34:07.935Z,63.02
2019-03-23T14:36:38.273Z,62.70
2019-03-23T14:39:08.680Z,63.30
2019-03-23T14:41:40.275Z,63.19
2019-03-23T14:44:10.607Z,63.16
2019-03-23T14:46:41.064Z,63.21
2019-03-23T14:49:11.366Z,62.72
2019-03-23T14:51:41.741Z,63.43
2019-03-23T14:54:12.099Z,64.32
2019-03-23T14:56:42.465Z,63.81
2019-03-23T14:59:12.782Z,64.14
2019-03-23T15:01:43.128Z,63.90
2019-03-23T15:04:13.424Z,63.93
2019-03-23T15:06:43.767Z,64.81
2019-03-23T15:09:14.169Z,64.67
2019-03-23T15:11:44.509Z,63.97
2019-03-23T15:14:14.742Z,64.01
2019-03-23T15:16:45.155Z,64.11
2019-03-23T15:19:15.720Z,64.96
2019-03-23T15:21:46.266Z,64.30
2019-03-23T15:24:16.565Z,64.72
2019-03-23T15:26:46.909Z,66.09
2019-03-23T15:29:17.260Z,64.47
2019-03-23T15:31:47.646Z,65.27
2019-03-23T15:34:17.941Z,65.53
2019-03-23T15:36:48.283Z,66.05
2019-03-23T15:39:18.603Z,65.48
2019-03-23T15:41:50.002Z,66.21
2019-03-23T15:44:20.296Z,66.47
2019-03-23T15:46:50.648Z,66.36
2019-03-23T15:49:20.962Z,66.29
2019-03-23T15:51:53.960Z,66.40
2019-03-23T15:54:24.286Z,65.76
2019-03-23T15:56:54.684Z,66.82
2019-03-23T15:59:24.993Z,67.34
2019-03-23T16:01:55.344Z,68.21
2019-03-23T16:04:25.679Z,67.67
2019-03-23T16:06:56.943Z,67.87
2019-03-23T16:09:27.293Z,67.20
2019-03-23T16:11:57.650Z,67.74
2019-03-23T16:14:27.969Z,68.62
2019-03-23T16:16:58.360Z,69.50
2019-03-23T16:19:29.286Z,70.94
2019-03-23T16:21:59.626Z,70.42
2019-03-23T16:24:30.039Z,70.69
2019-03-23T16:27:00.392Z,71.54
2019-03-23T16:29:30.671Z,70.60
2019-03-23T16:32:01.056Z,70.28
2019-03-23T16:34:31.376Z,70.56
2019-03-23T16:37:01.721Z,71.63
2019-03-23T16:39:32.033Z,70.79
2019-03-23T16:42:03.438Z,71.66
2019-03-23T16:44:33.750Z,71.38
2019-03-23T16:47:04.101Z,70.39
2019-03-23T16:49:34.397Z,70.40
2019-03-23T16:52:04.861Z,69.65
2019-03-23T16:54:35.162Z,70.52
2019-03-23T16:57:05.528Z,69.38
2019-03-23T16:59:35.845Z,69.19
2019-03-23T17:02:06.289Z,68.75
2019-03-23T17:04:36.695Z,69.38
2019-03-23T17:07:07.066Z,68.05
2019-03-23T17:09:37.275Z,67.83
2019-03-23T17:12:07.608Z,68.11
2019-03-23T17:14:37.951Z,68.51
2019-03-23T17:17:08.349Z,68.46
2019-03-23T17:19:38.813Z,67.85
2019-03-23T17:22:09.246Z,67.73
2019-03-23T17:24:39.551Z,67.98
2019-03-23T17:27:09.898Z,68.36
2019-03-23T17:29:42.931Z,68.81
2019-03-23T17:32:13.401Z,67.62
2019-03-23T17:34:43.871Z,69.03
2019-03-23T17:37:14.342Z,68.54
2019-03-23T17:39:44.780Z,68.38
2019-03-23T17:42:16.140Z,68.67
2019-03-23T17:44:46.427Z,68.40
2019-03-23T17:47:16.984Z,68.80
2019-03-23T17:49:47.408Z,68.51
2019-03-23T17:52:17.756Z,68.13
2019-03-23T17:54:48.117Z,67.96
2019-03-23T17:57:18.588Z,67.46
2019-03-23T17:59:48.985Z,67.87
2019-03-23T18:02:19.460Z,68.12
2019-03-23T18:04:49.810Z,67.64
2019-03-23T18:07:20.130Z,68.41
2019-03-23T18:09:50.484Z,67.08
2019-03-23T18:12:20.835Z,67.92
2019-03-23T18:14:51.183Z,67.74
2019-03-23T18:17:21.599Z,67.46
2019-03-23T18:19:51.949Z,67.44
2019-03-23T18:22:22.416Z,68.02
2019-03-23T18:24:52.853Z,67.81
2019-03-23T18:27:23.336Z,67.22
2019-03-23T18:29:53.641Z,67.42
2019-03-23T18:32:24.002Z,68.28
2019-03-23T18:34:54.398Z,67.73
2019-03-23T18:37:24.757Z,68.06
2019-03-23T18:39:55.094Z,67.57
2019-03-23T18:42:26.560Z,68.24
2019-03-23T18:44:56.856Z,68.33
2019-03-23T18:47:27.353Z,68.96
2019-03-23T18:49:57.726Z,68.47
2019-03-23T18:52:28.152Z,68.88
2019-03-23T18:54:58.546Z,68.25
2019-03-23T18:57:28.922Z,68.25
2019-03-23T18:59:59.225Z,68.94
2019-03-23T19:02:29.566Z,67.59
2019-03-23T19:04:59.895Z,67.67
2019-03-23T19:07:30.277Z,68.09
2019-03-23T19:10:00.620Z,68.17
2019-03-23T19:12:31.145Z,68.96
2019-03-23T19:15:01.589Z,67.83
2019-03-23T19:17:32.055Z,68.12
2019-03-23T19:20:02.392Z,69.14
2019-03-23T19:22:32.856Z,68.60
2019-03-23T19:25:03.258Z,67.98
2019-03-23T19:27:33.691Z,68.75
2019-03-23T19:30:06.346Z,68.64
2019-03-23T19:32:36.743Z,68.97
2019-03-23T19:35:07.529Z,69.50
2019-03-23T19:37:38.988Z,69.41
2019-03-23T19:40:09.403Z,69.17
2019-03-23T19:42:40.801Z,69.23
2019-03-23T19:45:11.216Z,69.25
2019-03-23T19:47:42.162Z,70.09
2019-03-23T19:50:12.676Z,69.95
2019-03-23T19:52:43.043Z,69.78
2019-03-23T19:55:13.534Z,69.43
2019-03-23T19:57:44.033Z,70.36
2019-03-23T20:00:14.761Z,70.05
2019-03-23T20:02:45.204Z,69.89
2019-03-23T20:05:15.843Z,69.89
2019-03-23T20:07:46.327Z,69.23
2019-03-23T20:10:17.194Z,70.09
2019-03-23T20:12:47.677Z,70.51
2019-03-23T20:15:18.083Z,70.57
2019-03-23T20:17:48.525Z,69.53
2019-03-23T20:20:20.065Z,69.85
2019-03-23T20:22:50.758Z,70.31
2019-03-23T20:25:21.301Z,70.53
2019-03-23T20:27:51.778Z,70.58
2019-03-23T20:30:22.306Z,69.65
2019-03-23T20:32:52.753Z,69.06
2019-03-23T20:35:23.177Z,69.59
2019-03-23T20:37:53.520Z,69.97
2019-03-23T20:40:23.997Z,69.41
2019-03-23T20:42:55.358Z,69.83
2019-03-23T20:45:30.469Z,69.87
2019-03-23T20:48:00.918Z,69.05
2019-03-23T20:50:31.197Z,69.72
2019-03-23T20:53:01.650Z,70.62
2019-03-23T20:55:32.139Z,70.32
2019-03-23T20:58:02.529Z,70.25
2019-03-23T21:00:32.925Z,70.22
2019-03-23T21:03:03.363Z,70.05
2019-03-23T21:05:34.503Z,70.05
2019-03-23T21:08:05.068Z,69.64
2019-03-23T21:10:35.375Z,69.59
2019-03-23T21:13:05.714Z,69.94
2019-03-23T21:15:36.087Z,69.41
2019-03-23T21:18:06.433Z,68.75
2019-03-23T21:20:37.244Z,69.71
2019-03-23T21:23:07.699Z,69.85
2019-03-23T21:25:38.117Z,69.64
2019-03-23T21:28:08.549Z,68.58
2019-03-23T21:30:38.872Z,69.30
2019-03-23T21:33:09.255Z,70.08
2019-03-23T21:35:39.652Z,69.67
2019-03-23T21:38:10.091Z,69.81
2019-03-23T21:40:40.489Z,70.49
2019-03-23T21:43:11.995Z,69.83
2019-03-23T21:45:42.258Z,69.88
2019-03-23T21:48:12.638Z,69.70
2019-03-23T21:50:47.303Z,69.92
2019-03-23T21:53:15.145Z,69.98
2019-03-23T21:55:45.530Z,70.10
2019-03-23T21:58:15.979Z,69.82
2019-03-23T22:00:46.374Z,69.63
2019-03-23T22:03:16.866Z,69.58
2019-03-23T22:05:47.286Z,69.98
2019-03-23T22:08:17.729Z,69.37
2019-03-23T22:10:48.125Z,69.16
2019-03-23T22:13:18.584Z,69.75
2019-03-23T22:15:48.996Z,70.13
2019-03-23T22:18:19.447Z,70.06
2019-03-23T22:20:49.874Z,69.96
2019-03-23T22:23:20.338Z,70.54
2019-03-23T22:25:50.758Z,70.45
2019-03-23T22:28:21.190Z,70.40
2019-03-23T22:30:51.603Z,71.27
2019-03-23T22:33:22.068Z,70.64
2019-03-23T22:35:52.461Z,71.87
2019-03-23T22:38:22.915Z,71.41
2019-03-23T22:40:53.320Z,71.29
2019-03-23T22:43:24.753Z,71.24
2019-03-23T22:45:55.238Z,71.23
2019-03-23T22:48:25.685Z,71.89
2019-03-23T22:50:56.108Z,72.40
2019-03-23T22:53:26.595Z,71.70
2019-03-23T22:55:56.917Z,72.50
2019-03-23T22:58:27.340Z,72.05
2019-03-23T23:00:58.163Z,72.48
2019-03-23T23:03:28.630Z,72.42
2019-03-23T23:05:59.043Z,72.57
2019-03-23T23:08:29.492Z,72.57
2019-03-23T23:10:59.910Z,72.95
2019-03-23T23:13:30.364Z,72.33
2019-03-23T23:16:00.773Z,72.60
2019-03-23T23:18:31.235Z,73.13
2019-03-23T23:21:01.625Z,73.86
2019-03-23T23:23:32.074Z,73.54
2019-03-23T23:26:02.462Z,73.01
2019-03-23T23:28:32.931Z,73.08
2019-03-23T23:31:03.389Z,73.23
2019-03-23T23:33:33.792Z,73.23
2019-03-23T23:36:04.866Z,73.56
2019-03-23T23:38:35.304Z,73.98
2019-03-23T23:41:05.635Z,73.83
2019-03-23T23:43:37.000Z,73.33
2019-03-23T23:46:07.335Z,74.18
2019-03-23T23:48:37.770Z,73.54
2019-03-23T23:51:08.174Z,73.91
2019-03-23T23:53:38.543Z,74.68
2019-03-23T23:56:08.924Z,74.42
2019-03-23T23:58:39.401Z,74.35
